createdAt,value
2023-04-21T00:01:40.165Z,5.00
2023-04-21T00:04:07.365Z,5.00
2023-04-21T00:06:34.451Z,4.90
2023-04-21T00:09:01.275Z,4.90
2023-04-21T00:11:28.183Z,4.90
2023-04-21T00:13:56.210Z,4.80
2023-04-21T00:16:23.116Z,4.90
2023-04-21T00:18:49.946Z,4.80
2023-04-21T00:21:17.746Z,4.80
2023-04-21T00:23:44.544Z,4.80
2023-04-21T00:26:11.614Z,4.80
2023-04-21T00:28:41.186Z,4.80
2023-04-21T00:31:07.998Z,4.80
2023-04-21T00:33:34.859Z,4.80
2023-04-21T00:36:01.656Z,4.80
2023-04-21T00:38:28.503Z,4.80
2023-04-21T00:40:55.618Z,4.80
2023-04-21T00:43:22.607Z,4.70
2023-04-21T00:45:49.399Z,4.80
2023-04-21T00:48:17.511Z,4.80
2023-04-21T00:50:45.167Z,4.70
2023-04-21T00:53:14.484Z,4.70
2023-04-21T00:55:41.652Z,4.70
2023-04-21T00:58:09.003Z,4.70
2023-04-21T01:00:36.558Z,4.70
2023-04-21T01:03:06.012Z,4.70
2023-04-21T01:05:33.076Z,4.70
2023-04-21T01:08:01.786Z,4.80
2023-04-21T01:10:28.679Z,4.80
2023-04-21T01:12:55.467Z,4.90
2023-04-21T01:15:22.437Z,4.80
2023-04-21T01:17:49.795Z,4.90
2023-04-21T01:20:16.986Z,4.80
2023-04-21T01:22:45.069Z,4.80
2023-04-21T01:25:11.978Z,5.00
2023-04-21T01:27:38.941Z,5.00
2023-04-21T01:30:07.578Z,4.90
2023-04-21T01:32:35.680Z,4.90
2023-04-21T01:35:02.701Z,4.80
2023-04-21T01:37:32.024Z,4.80
2023-04-21T01:40:01.665Z,4.90
2023-04-21T01:42:29.892Z,4.80
2023-04-21T01:44:59.356Z,4.80
2023-04-21T01:47:26.458Z,4.80
2023-04-21T01:49:53.739Z,4.80
2023-04-21T01:52:20.923Z,4.80
2023-04-21T01:54:47.866Z,4.90
2023-04-21T01:57:15.323Z,4.90
2023-04-21T01:59:42.616Z,4.90
2023-04-21T02:02:10.079Z,4.90
2023-04-21T02:04:37.199Z,4.90
2023-04-21T02:07:04.119Z,4.80
2023-04-21T02:09:33.053Z,4.80
2023-04-21T02:12:00.379Z,4.80
2023-04-21T02:14:27.373Z,4.80
2023-04-21T02:16:56.077Z,4.80
2023-04-21T02:19:23.283Z,4.80
2023-04-21T02:21:50.430Z,4.80
2023-04-21T02:24:17.289Z,5.00
2023-04-21T02:26:45.869Z,5.00
2023-04-21T02:29:12.745Z,5.00
2023-04-21T02:31:54.336Z,4.90
2023-04-21T02:34:26.331Z,4.90
2023-04-21T02:36:53.237Z,4.90
2023-04-21T02:39:20.315Z,4.90
2023-04-21T02:41:47.241Z,4.90
2023-04-21T02:44:14.117Z,4.90
2023-04-21T02:46:41.843Z,4.90
2023-04-21T02:49:09.748Z,4.90
2023-04-21T02:51:36.963Z,4.90
2023-04-21T02:54:03.825Z,4.90
2023-04-21T02:56:31.745Z,4.90
2023-04-21T02:58:58.556Z,4.90
2023-04-21T03:01:25.527Z,4.90
2023-04-21T03:03:52.673Z,5.00
2023-04-21T03:06:19.618Z,5.00
2023-04-21T03:08:46.557Z,4.90
2023-04-21T03:11:13.539Z,5.00
2023-04-21T03:13:40.440Z,5.00
2023-04-21T03:16:07.520Z,5.00
2023-04-21T03:18:37.459Z,5.00
2023-04-21T03:21:05.176Z,5.00
2023-04-21T03:23:33.093Z,4.90
2023-04-21T03:25:59.915Z,4.90
2023-04-21T03:28:26.769Z,4.90
2023-04-21T03:30:53.572Z,4.90
2023-04-21T03:33:20.532Z,4.80
2023-04-21T03:35:47.391Z,4.90
2023-04-21T03:38:14.233Z,4.90
2023-04-21T03:40:41.016Z,4.90
2023-04-21T03:43:07.888Z,4.90
2023-04-21T03:45:37.901Z,4.90
2023-04-21T03:48:05.254Z,4.90
2023-04-21T03:50:32.219Z,4.90
2023-04-21T03:52:59.085Z,4.90
2023-04-21T03:55:25.977Z,4.80
2023-04-21T03:57:52.730Z,4.80
2023-04-21T04:00:19.679Z,4.80
2023-04-21T04:02:46.705Z,4.80
2023-04-21T04:05:13.704Z,4.80
2023-04-21T04:07:40.762Z,4.80
2023-04-21T04:10:07.683Z,4.80
2023-04-21T04:12:34.468Z,4.80
2023-04-21T04:15:01.531Z,4.80
2023-04-21T04:17:28.437Z,4.70
2023-04-21T04:19:55.203Z,4.70
2023-04-21T04:22:22.159Z,4.70
2023-04-21T04:24:53.188Z,4.80
2023-04-21T04:27:21.459Z,4.70
2023-04-21T04:29:49.345Z,4.70
2023-04-21T04:32:16.434Z,4.60
2023-04-21T04:34:43.278Z,4.70
2023-04-21T04:37:11.191Z,4.60
2023-04-21T04:39:38.192Z,4.60
2023-04-21T04:42:11.737Z,4.60
2023-04-21T04:44:38.666Z,4.60
2023-04-21T04:47:06.146Z,4.70
2023-04-21T04:49:33.293Z,4.70
2023-04-21T04:52:00.168Z,4.70
2023-04-21T04:54:28.936Z,4.70
2023-04-21T04:56:56.813Z,4.80
2023-04-21T04:59:23.619Z,4.90
2023-04-21T05:04:31.220Z,4.70
2023-04-21T05:06:58.093Z,4.70
2023-04-21T05:09:25.883Z,4.60
2023-04-21T05:11:52.962Z,4.70
2023-04-21T05:14:20.172Z,4.70
2023-04-21T05:16:47.140Z,4.80
2023-04-21T05:19:14.896Z,4.70
2023-04-21T05:21:43.070Z,4.60
2023-04-21T05:24:09.893Z,4.60
2023-04-21T05:26:36.654Z,4.60
2023-04-21T05:29:03.506Z,4.50
2023-04-21T05:31:30.318Z,4.50
2023-04-21T05:33:57.101Z,4.60
2023-04-21T05:36:25.039Z,4.70
2023-04-21T05:38:52.550Z,4.90
2023-04-21T05:41:19.405Z,4.90
2023-04-21T05:43:47.550Z,4.90
2023-04-21T05:46:14.723Z,4.90
2023-04-21T05:48:41.691Z,4.80
2023-04-21T05:51:12.671Z,4.90
2023-04-21T05:53:41.153Z,5.00
2023-04-21T05:56:12.125Z,5.30
2023-04-21T05:58:39.001Z,5.30
2023-04-21T06:01:09.171Z,5.30
2023-04-21T06:03:36.137Z,5.10
2023-04-21T06:06:05.858Z,5.10
2023-04-21T06:08:32.931Z,5.20
2023-04-21T06:10:59.754Z,5.30
2023-04-21T06:13:27.839Z,5.20
2023-04-21T06:15:55.385Z,5.20
2023-04-21T06:18:22.692Z,5.50
2023-04-21T06:20:53.874Z,5.30
2023-04-21T06:23:21.220Z,5.30
2023-04-21T06:25:58.712Z,5.40
2023-04-21T06:28:25.564Z,5.40
2023-04-21T06:30:52.429Z,5.50
2023-04-21T06:33:19.257Z,5.40
2023-04-21T06:35:46.268Z,5.30
2023-04-21T06:38:13.054Z,5.40
2023-04-21T06:40:39.927Z,5.50
2023-04-21T06:43:06.851Z,5.60
2023-04-21T06:45:33.627Z,5.60
2023-04-21T06:48:00.496Z,5.80
2023-04-21T06:50:27.389Z,5.90
2023-04-21T06:52:54.227Z,5.90
2023-04-21T06:55:21.067Z,5.80
2023-04-21T06:57:47.867Z,5.90
2023-04-21T07:00:15.153Z,5.90
2023-04-21T07:02:42.332Z,5.90
2023-04-21T07:05:09.400Z,5.90
2023-04-21T07:07:36.164Z,6.00
2023-04-21T07:10:02.983Z,6.00
2023-04-21T07:12:29.785Z,5.90
2023-04-21T07:14:56.561Z,6.00
2023-04-21T07:17:23.491Z,6.00
2023-04-21T07:19:50.361Z,5.90
2023-04-21T07:22:17.185Z,5.90
2023-04-21T07:24:44.187Z,6.10
2023-04-21T07:27:11.061Z,6.10
2023-04-21T07:29:37.887Z,6.20
2023-04-21T07:32:04.755Z,6.20
2023-04-21T07:34:31.580Z,6.20
2023-04-21T07:36:58.355Z,6.40
2023-04-21T07:39:25.198Z,6.40
2023-04-21T07:41:52.010Z,6.40
2023-04-21T07:44:18.846Z,6.40
2023-04-21T07:46:46.465Z,6.40
2023-04-21T07:49:13.285Z,6.50
2023-04-21T07:51:40.281Z,6.50
2023-04-21T07:54:07.173Z,6.50
2023-04-21T07:56:33.975Z,6.50
2023-04-21T07:59:00.743Z,6.50
2023-04-21T08:01:27.588Z,6.60
2023-04-21T08:03:54.453Z,6.60
2023-04-21T08:06:21.620Z,6.60
2023-04-21T08:08:48.488Z,6.50
2023-04-21T08:11:15.373Z,6.70
2023-04-21T08:13:42.144Z,6.70
2023-04-21T08:16:08.974Z,6.70
2023-04-21T08:18:35.943Z,6.70
2023-04-21T08:21:02.754Z,6.80
2023-04-21T08:23:32.547Z,6.80
2023-04-21T08:25:59.428Z,6.90
2023-04-21T08:28:26.243Z,7.00
2023-04-21T08:30:53.016Z,6.90
2023-04-21T08:33:19.951Z,7.10
2023-04-21T08:36:01.352Z,7.10
2023-04-21T08:38:31.021Z,7.30
2023-04-21T08:40:59.939Z,7.20
2023-04-21T08:43:28.593Z,7.30
2023-04-21T08:45:56.109Z,7.40
2023-04-21T08:48:23.876Z,7.50
2023-04-21T08:50:52.205Z,7.60
2023-04-21T08:53:19.547Z,7.90
2023-04-21T08:55:59.545Z,7.70
2023-04-21T08:58:36.583Z,7.80
2023-04-21T09:01:03.381Z,7.90
2023-04-21T09:06:05.494Z,8.10
2023-04-21T09:08:33.749Z,8.10
2023-04-21T09:11:04.218Z,8.20
2023-04-21T09:13:36.588Z,8.10
2023-04-21T09:16:08.217Z,8.20
2023-04-21T09:18:40.185Z,8.10
2023-04-21T09:21:15.548Z,8.20
2023-04-21T09:23:50.175Z,8.20
2023-04-21T09:26:18.862Z,8.40
2023-04-21T09:28:47.673Z,8.30
2023-04-21T09:31:19.926Z,8.40
2023-04-21T09:36:24.755Z,8.50
2023-04-21T09:39:08.990Z,8.60
2023-04-21T09:41:41.750Z,8.60
2023-04-21T09:44:08.628Z,8.70
2023-04-21T09:46:37.143Z,8.70
2023-04-21T09:49:05.787Z,8.80
2023-04-21T09:54:27.678Z,8.80
2023-04-21T09:57:02.365Z,8.90
2023-04-21T09:59:37.190Z,8.80
2023-04-21T10:02:06.307Z,8.70
2023-04-21T10:04:35.279Z,8.80
2023-04-21T10:07:02.914Z,8.90
2023-04-21T10:09:43.378Z,8.90
2023-04-21T10:12:11.407Z,9.00
2023-04-21T10:14:38.279Z,9.10
2023-04-21T10:17:10.381Z,9.20
2023-04-21T10:19:47.520Z,9.20
2023-04-21T10:22:14.437Z,9.30
2023-04-21T10:24:47.277Z,9.40
2023-04-21T10:27:34.678Z,9.60
2023-04-21T10:30:02.050Z,9.60
2023-04-21T10:32:47.138Z,9.60
2023-04-21T10:35:23.157Z,9.70
2023-04-21T10:37:53.795Z,9.90
2023-04-21T10:40:42.529Z,9.80
2023-04-21T10:43:48.420Z,9.80
2023-04-21T10:46:40.492Z,9.80
2023-04-21T10:49:10.003Z,9.80
2023-04-21T10:51:59.830Z,9.90
2023-04-21T10:54:28.369Z,10.00
2023-04-21T10:56:56.447Z,10.20
2023-04-21T10:59:24.445Z,10.30
2023-04-21T11:01:52.148Z,10.40
2023-04-21T11:04:21.395Z,10.40
2023-04-21T11:07:19.469Z,10.50
2023-04-21T11:09:48.289Z,10.50
2023-04-21T11:12:18.275Z,10.60
2023-04-21T11:14:48.186Z,10.70
2023-04-21T11:17:19.978Z,10.80
2023-04-21T11:19:48.352Z,10.90
2023-04-21T11:22:17.619Z,11.20
2023-04-21T11:24:46.278Z,11.00
2023-04-21T11:27:14.653Z,11.10
2023-04-21T11:29:42.466Z,11.20
2023-04-21T11:32:09.756Z,11.00
2023-04-21T11:34:39.748Z,11.00
2023-04-21T11:37:14.182Z,11.20
2023-04-21T11:39:42.147Z,11.00
2023-04-21T11:42:09.587Z,11.00
2023-04-21T11:44:37.709Z,11.00
2023-04-21T11:47:21.154Z,11.30
2023-04-21T11:49:58.219Z,11.50
2023-04-21T11:52:25.086Z,11.60
2023-04-21T11:54:59.438Z,11.40
2023-04-21T11:57:27.773Z,11.60
2023-04-21T11:59:58.006Z,11.70
2023-04-21T12:02:27.288Z,11.80
2023-04-21T12:05:06.967Z,11.70
2023-04-21T12:07:39.152Z,11.70
2023-04-21T12:10:13.492Z,11.70
2023-04-21T12:12:44.328Z,11.80
2023-04-21T12:15:12.990Z,12.10
2023-04-21T12:17:51.246Z,12.00
2023-04-21T12:20:19.923Z,12.20
2023-04-21T12:22:47.804Z,12.20
2023-04-21T12:25:14.942Z,12.40
2023-04-21T12:27:52.472Z,12.50
2023-04-21T12:30:20.506Z,12.50
2023-04-21T12:32:52.271Z,12.60
2023-04-21T12:35:19.476Z,12.70
2023-04-21T12:37:46.792Z,12.80
2023-04-21T12:40:13.717Z,12.80
2023-04-21T12:42:40.771Z,12.90
2023-04-21T12:45:08.129Z,12.90
2023-04-21T12:47:37.143Z,13.00
2023-04-21T12:50:04.577Z,13.10
2023-04-21T12:52:31.537Z,13.20
2023-04-21T12:54:58.397Z,13.20
2023-04-21T12:57:25.532Z,13.20
2023-04-21T12:59:52.480Z,13.20
2023-04-21T13:02:19.614Z,13.10
2023-04-21T13:04:46.709Z,13.20
2023-04-21T13:07:14.824Z,13.40
2023-04-21T13:09:41.993Z,13.50
2023-04-21T13:12:08.914Z,13.60
2023-04-21T13:14:35.829Z,13.70
2023-04-21T13:17:02.785Z,13.60
2023-04-21T13:19:30.328Z,13.70
2023-04-21T13:21:57.399Z,13.80
2023-04-21T13:24:25.918Z,13.90
2023-04-21T13:26:52.913Z,13.80
2023-04-21T13:29:19.865Z,13.90
2023-04-21T13:31:46.736Z,13.80
2023-04-21T13:34:13.723Z,13.90
2023-04-21T13:36:41.805Z,14.00
2023-04-21T13:39:11.791Z,14.00
2023-04-21T13:41:38.980Z,14.00
2023-04-21T13:44:06.025Z,14.10
2023-04-21T13:46:33.075Z,14.10
2023-04-21T13:48:59.988Z,14.10
2023-04-21T13:51:26.906Z,14.10
2023-04-21T13:53:53.892Z,14.10
2023-04-21T13:56:20.936Z,14.10
2023-04-21T13:58:48.512Z,14.20
2023-04-21T14:01:15.752Z,14.20
2023-04-21T14:03:42.896Z,14.20
2023-04-21T14:06:09.957Z,14.30
2023-04-21T14:08:36.923Z,14.30
2023-04-21T14:11:04.670Z,14.40
2023-04-21T14:13:37.810Z,14.30
2023-04-21T14:16:09.401Z,14.30
2023-04-21T14:18:38.398Z,14.40
2023-04-21T14:21:05.493Z,14.40
2023-04-21T14:23:32.485Z,14.40
2023-04-21T14:25:59.381Z,14.30
2023-04-21T14:28:26.619Z,14.40
2023-04-21T14:30:53.565Z,14.30
2023-04-21T14:33:20.696Z,14.40
2023-04-21T14:35:47.658Z,14.40
2023-04-21T14:38:14.592Z,14.40
2023-04-21T14:40:41.534Z,14.40
2023-04-21T14:43:11.390Z,14.40
2023-04-21T14:45:38.624Z,14.40
2023-04-21T14:48:05.771Z,14.50
2023-04-21T14:50:33.214Z,14.50
2023-04-21T14:53:00.066Z,14.50
2023-04-21T14:55:26.969Z,14.50
2023-04-21T14:57:53.905Z,14.60
2023-04-21T15:00:21.087Z,14.60
2023-04-21T15:02:48.070Z,14.60
2023-04-21T15:05:15.416Z,14.50
2023-04-21T15:07:43.081Z,14.50
2023-04-21T15:10:11.240Z,14.60
2023-04-21T15:12:39.506Z,14.50
2023-04-21T15:15:06.959Z,14.50
2023-04-21T15:17:33.797Z,14.60
2023-04-21T15:20:00.590Z,14.60
2023-04-21T15:22:28.682Z,14.60
2023-04-21T15:24:55.541Z,14.50
2023-04-21T15:27:22.366Z,14.50
2023-04-21T15:29:49.498Z,14.60
2023-04-21T15:32:16.305Z,14.50
2023-04-21T15:34:43.228Z,14.60
2023-04-21T15:37:10.119Z,14.50
2023-04-21T15:39:37.438Z,14.50
2023-04-21T15:42:05.069Z,14.50
2023-04-21T15:44:33.938Z,14.50
2023-04-21T15:47:01.070Z,14.50
2023-04-21T15:49:28.269Z,14.40
2023-04-21T15:51:56.730Z,14.30
2023-04-21T15:54:24.044Z,14.30
2023-04-21T15:56:51.375Z,14.30
2023-04-21T15:59:18.266Z,14.30
2023-04-21T16:01:45.216Z,14.20
2023-04-21T16:04:12.419Z,14.20
2023-04-21T16:06:39.724Z,14.20
2023-04-21T16:09:06.699Z,14.20
2023-04-21T16:11:34.396Z,14.20
2023-04-21T16:14:01.632Z,14.20
2023-04-21T16:16:28.698Z,14.20
2023-04-21T16:18:55.689Z,14.20
2023-04-21T16:21:22.618Z,14.10
2023-04-21T16:23:49.669Z,14.10
2023-04-21T16:26:16.676Z,14.00
2023-04-21T16:28:43.600Z,14.00
2023-04-21T16:31:10.539Z,14.00
2023-04-21T16:33:37.444Z,14.00
2023-04-21T16:36:04.438Z,14.00
2023-04-21T16:38:31.415Z,14.00
2023-04-21T16:40:58.378Z,14.00
2023-04-21T16:43:25.373Z,14.00
2023-04-21T16:45:52.366Z,13.90
2023-04-21T16:48:19.375Z,13.90
2023-04-21T16:50:46.266Z,13.90
2023-04-21T16:53:13.236Z,13.90
2023-04-21T16:55:40.297Z,13.80
2023-04-21T16:58:07.147Z,13.80
2023-04-21T17:00:35.917Z,13.80
2023-04-21T17:03:02.934Z,13.80
2023-04-21T17:05:30.095Z,13.80
2023-04-21T17:07:56.952Z,13.80
2023-04-21T17:10:24.524Z,13.80
2023-04-21T17:12:51.505Z,13.80
2023-04-21T17:15:18.577Z,13.70
2023-04-21T17:17:47.123Z,13.70
2023-04-21T17:20:14.708Z,13.80
2023-04-21T17:22:42.357Z,13.70
2023-04-21T17:25:10.039Z,13.70
2023-04-21T17:27:38.337Z,13.60
2023-04-21T17:30:06.285Z,13.70
2023-04-21T17:32:34.271Z,13.60
2023-04-21T17:35:02.140Z,13.60
2023-04-21T17:37:30.410Z,13.60
2023-04-21T17:40:00.339Z,13.60
2023-04-21T17:42:29.218Z,13.60
2023-04-21T17:44:56.114Z,13.60
2023-04-21T17:47:23.084Z,13.60
2023-04-21T17:49:50.093Z,13.60
2023-04-21T17:52:17.302Z,13.60
2023-04-21T17:54:44.487Z,13.60
2023-04-21T17:57:11.985Z,13.60
2023-04-21T17:59:39.644Z,13.50
2023-04-21T18:02:07.452Z,13.40
2023-04-21T18:04:34.875Z,13.30
2023-04-21T18:07:02.809Z,13.30
2023-04-21T18:09:30.078Z,13.30
2023-04-21T18:11:57.548Z,13.20
2023-04-21T18:14:25.152Z,13.20
2023-04-21T18:16:52.007Z,13.30
2023-04-21T18:19:18.898Z,13.20
2023-04-21T18:21:45.888Z,13.10
2023-04-21T18:24:12.900Z,13.10
2023-04-21T18:26:39.857Z,13.10
2023-04-21T18:29:06.922Z,13.00
2023-04-21T18:31:34.483Z,13.00
2023-04-21T18:34:01.533Z,12.90
2023-04-21T18:36:30.783Z,12.90
2023-04-21T18:38:59.317Z,12.90
2023-04-21T18:41:27.468Z,12.90
2023-04-21T18:43:54.910Z,12.80
2023-04-21T18:46:22.370Z,13.10
2023-04-21T18:48:49.415Z,12.90
2023-04-21T18:51:16.799Z,12.90
2023-04-21T18:53:43.820Z,12.90
2023-04-21T18:56:10.771Z,12.90
2023-04-21T18:58:37.644Z,12.90
2023-04-21T19:01:04.635Z,12.80
2023-04-21T19:03:31.763Z,12.70
2023-04-21T19:05:58.915Z,12.40
2023-04-21T19:08:40.762Z,12.30
2023-04-21T19:11:10.073Z,12.40
2023-04-21T19:13:37.238Z,12.40
2023-04-21T19:16:05.189Z,12.30
2023-04-21T19:18:32.376Z,12.30
2023-04-21T19:20:59.195Z,12.20
2023-04-21T19:23:26.026Z,12.20
2023-04-21T19:25:55.098Z,12.10
2023-04-21T19:28:22.018Z,12.00
2023-04-21T19:30:49.124Z,11.90
2023-04-21T19:33:16.318Z,12.10
2023-04-21T19:35:43.400Z,11.90
2023-04-21T19:38:10.576Z,11.80
2023-04-21T19:40:37.640Z,11.70
2023-04-21T19:43:05.008Z,11.70
2023-04-21T19:45:32.501Z,11.60
2023-04-21T19:47:59.489Z,11.60
2023-04-21T19:50:26.901Z,11.50
2023-04-21T19:52:53.769Z,11.50
2023-04-21T19:55:20.744Z,11.40
2023-04-21T19:57:47.704Z,11.40
2023-04-21T20:00:15.626Z,11.40
2023-04-21T20:02:42.861Z,11.50
2023-04-21T20:05:10.176Z,11.50
2023-04-21T20:07:38.062Z,11.40
2023-04-21T20:10:06.808Z,11.40
2023-04-21T20:12:34.336Z,11.30
2023-04-21T20:15:01.806Z,11.40
2023-04-21T20:17:29.315Z,11.50
2023-04-21T20:19:56.235Z,11.50
2023-04-21T20:22:23.093Z,11.80
2023-04-21T20:24:52.165Z,11.90
2023-04-21T20:27:19.322Z,11.90
2023-04-21T20:29:46.959Z,11.70
2023-04-21T20:32:13.976Z,11.60
2023-04-21T20:34:40.964Z,11.50
2023-04-21T20:37:07.902Z,11.50
2023-04-21T20:39:34.775Z,11.40
2023-04-21T20:42:12.586Z,11.40
2023-04-21T20:44:42.725Z,11.40
2023-04-21T20:47:11.299Z,11.50
2023-04-21T20:49:39.841Z,11.50
2023-04-21T20:52:07.098Z,11.50
2023-04-21T20:54:34.853Z,11.50
2023-04-21T20:57:02.443Z,11.60
2023-04-21T20:59:29.652Z,11.60
2023-04-21T21:01:56.687Z,11.70
2023-04-21T21:04:23.796Z,11.70
2023-04-21T21:06:50.845Z,11.90
2023-04-21T21:09:18.956Z,12.00
2023-04-21T21:11:46.192Z,11.90
2023-04-21T21:14:13.169Z,11.90
2023-04-21T21:16:40.478Z,11.90
2023-04-21T21:19:07.411Z,11.80
2023-04-21T21:21:34.347Z,11.80
2023-04-21T21:24:01.290Z,11.80
2023-04-21T21:26:28.920Z,11.80
2023-04-21T21:28:56.132Z,11.90
2023-04-21T21:31:23.285Z,11.90
2023-04-21T21:33:50.294Z,11.80
2023-04-21T21:36:17.212Z,11.90
2023-04-21T21:38:44.112Z,11.90
2023-04-21T21:41:12.299Z,11.90
2023-04-21T21:43:39.303Z,11.90
2023-04-21T21:46:06.372Z,11.90
2023-04-21T21:48:33.412Z,11.90
2023-04-21T21:51:00.494Z,11.80
2023-04-21T21:53:27.451Z,12.00
2023-04-21T21:55:54.372Z,11.90
2023-04-21T21:58:29.111Z,11.90
2023-04-21T22:00:55.947Z,12.00
2023-04-21T22:03:23.055Z,11.90
2023-04-21T22:05:50.135Z,11.90
2023-04-21T22:08:17.035Z,11.80
2023-04-21T22:10:44.616Z,11.80
2023-04-21T22:13:12.022Z,11.80
2023-04-21T22:15:38.972Z,11.80
2023-04-21T22:18:07.142Z,11.70
2023-04-21T22:20:34.263Z,11.70
2023-04-21T22:23:01.156Z,11.70
2023-04-21T22:25:28.062Z,11.80
2023-04-21T22:27:58.679Z,11.80
2023-04-21T22:30:25.977Z,11.80
2023-04-21T22:32:53.029Z,11.90
2023-04-21T22:35:20.143Z,11.80
2023-04-21T22:37:47.108Z,11.80
2023-04-21T22:40:14.069Z,11.70
2023-04-21T22:42:41.006Z,11.80
2023-04-21T22:45:08.382Z,11.80
2023-04-21T22:47:35.454Z,11.60
2023-04-21T22:50:02.377Z,11.40
2023-04-21T22:52:29.299Z,11.30
2023-04-21T22:54:56.230Z,11.30
2023-04-21T22:57:23.283Z,11.20
2023-04-21T22:59:50.337Z,11.10
2023-04-21T23:02:17.410Z,11.10
2023-04-21T23:04:44.395Z,11.10
2023-04-21T23:07:11.270Z,11.00
2023-04-21T23:09:38.354Z,10.90
2023-04-21T23:12:06.267Z,11.00
2023-04-21T23:14:33.270Z,11.00
2023-04-21T23:17:00.397Z,11.00
2023-04-21T23:19:27.365Z,10.90
2023-04-21T23:21:54.297Z,10.80
2023-04-21T23:24:21.235Z,10.80
2023-04-21T23:26:48.120Z,10.70
2023-04-21T23:29:15.131Z,10.80
2023-04-21T23:31:42.109Z,10.90
2023-04-21T23:34:09.065Z,10.80
2023-04-21T23:36:35.952Z,10.80
2023-04-21T23:39:03.016Z,10.80
2023-04-21T23:41:29.886Z,10.70
2023-04-21T23:43:56.834Z,10.70
2023-04-21T23:46:23.774Z,10.60
2023-04-21T23:48:50.669Z,10.60
2023-04-21T23:51:17.625Z,10.60
2023-04-21T23:53:44.591Z,10.50
2023-04-21T23:56:11.518Z,10.60
2023-04-21T23:58:38.362Z,10.40
